sensor_id;sensor_type;location;lat;lon;timestamp;P1;durP1;ratioP1;P2;durP2;ratioP2
23800;SDS011;12081;48.614;10.226;2022-08-20T00:01:10;42.17;;;37.67;;
23800;SDS011;12081;48.614;10.226;2022-08-20T00:03:54;40.13;;;35.83;;
23800;SDS011;12081;48.614;10.226;2022-08-20T00:06:39;39.10;;;34.13;;
23800;SDS011;12081;48.614;10.226;2022-08-20T00:09:23;39.73;;;34.10;;
23800;SDS011;12081;48.614;10.226;2022-08-20T00:12:08;36.33;;;31.10;;
23800;SDS011;12081;48.614;10.226;2022-08-20T00:14:53;31.10;;;27.90;;
23800;SDS011;12081;48.614;10.226;2022-08-20T00:17:37;28.77;;;25.87;;
23800;SDS011;12081;48.614;10.226;2022-08-20T00:20:23;26.83;;;24.03;;
23800;SDS011;12081;48.614;10.226;2022-08-20T00:23:10;23.13;;;20.73;;
23800;SDS011;12081;48.614;10.226;2022-08-20T00:25:54;19.47;;;17.57;;
23800;SDS011;12081;48.614;10.226;2022-08-20T00:28:38;18.00;;;16.20;;
23800;SDS011;12081;48.614;10.226;2022-08-20T00:31:23;14.23;;;12.43;;
23800;SDS011;12081;48.614;10.226;2022-08-20T00:34:08;14.67;;;12.67;;
23800;SDS011;12081;48.614;10.226;2022-08-20T00:36:52;12.57;;;11.27;;
23800;SDS011;12081;48.614;10.226;2022-08-20T00:39:36;12.43;;;10.70;;
23800;SDS011;12081;48.614;10.226;2022-08-20T00:42:20;11.10;;;10.00;;
23800;SDS011;12081;48.614;10.226;2022-08-20T00:45:04;13.87;;;11.30;;
23800;SDS011;12081;48.614;10.226;2022-08-20T00:47:49;13.50;;;10.97;;
23800;SDS011;12081;48.614;10.226;2022-08-20T00:53:18;14.17;;;10.13;;
23800;SDS011;12081;48.614;10.226;2022-08-20T00:58:43;10.17;;;9.17;;
23800;SDS011;12081;48.614;10.226;2022-08-20T01:01:28;11.53;;;10.37;;
23800;SDS011;12081;48.614;10.226;2022-08-20T01:04:17;9.60;;;8.70;;
23800;SDS011;12081;48.614;10.226;2022-08-20T01:09:36;9.20;;;8.30;;
23800;SDS011;12081;48.614;10.226;2022-08-20T01:12:21;9.60;;;8.70;;
23800;SDS011;12081;48.614;10.226;2022-08-20T01:15:06;8.80;;;7.90;;
23800;SDS011;12081;48.614;10.226;2022-08-20T01:17:55;10.80;;;8.57;;
23800;SDS011;12081;48.614;10.226;2022-08-20T01:20:51;9.43;;;8.43;;
23800;SDS011;12081;48.614;10.226;2022-08-20T01:23:45;8.30;;;7.60;;
23800;SDS011;12081;48.614;10.226;2022-08-20T01:26:40;8.70;;;7.73;;
23800;SDS011;12081;48.614;10.226;2022-08-20T01:32:05;9.27;;;8.40;;
23800;SDS011;12081;48.614;10.226;2022-08-20T01:34:50;9.73;;;8.30;;
23800;SDS011;12081;48.614;10.226;2022-08-20T01:37:34;10.60;;;8.30;;
23800;SDS011;12081;48.614;10.226;2022-08-20T01:40:20;9.80;;;8.43;;
23800;SDS011;12081;48.614;10.226;2022-08-20T01:43:15;9.47;;;8.57;;
23800;SDS011;12081;48.614;10.226;2022-08-20T01:46:00;9.50;;;8.57;;
23800;SDS011;12081;48.614;10.226;2022-08-20T01:48:44;10.50;;;8.53;;
23800;SDS011;12081;48.614;10.226;2022-08-20T01:51:29;9.33;;;8.43;;
23800;SDS011;12081;48.614;10.226;2022-08-20T01:54:13;9.83;;;8.80;;
23800;SDS011;12081;48.614;10.226;2022-08-20T01:57:09;11.90;;;9.00;;
23800;SDS011;12081;48.614;10.226;2022-08-20T01:59:58;10.17;;;7.87;;
23800;SDS011;12081;48.614;10.226;2022-08-20T02:02:42;9.43;;;8.27;;
23800;SDS011;12081;48.614;10.226;2022-08-20T02:05:26;8.50;;;7.20;;
23800;SDS011;12081;48.614;10.226;2022-08-20T02:10:54;8.83;;;7.50;;
23800;SDS011;12081;48.614;10.226;2022-08-20T02:13:39;10.63;;;7.90;;
23800;SDS011;12081;48.614;10.226;2022-08-20T02:16:26;8.40;;;6.83;;
23800;SDS011;12081;48.614;10.226;2022-08-20T02:19:15;9.43;;;7.73;;
23800;SDS011;12081;48.614;10.226;2022-08-20T02:22:15;9.50;;;8.13;;
23800;SDS011;12081;48.614;10.226;2022-08-20T02:25:05;9.97;;;8.13;;
23800;SDS011;12081;48.614;10.226;2022-08-20T02:27:51;7.53;;;6.83;;
23800;SDS011;12081;48.614;10.226;2022-08-20T02:30:38;7.70;;;7.00;;
23800;SDS011;12081;48.614;10.226;2022-08-20T02:33:25;7.83;;;7.13;;
23800;SDS011;12081;48.614;10.226;2022-08-20T02:36:09;7.17;;;6.50;;
23800;SDS011;12081;48.614;10.226;2022-08-20T02:38:55;7.50;;;6.40;;
23800;SDS011;12081;48.614;10.226;2022-08-20T02:41:39;7.67;;;6.30;;
23800;SDS011;12081;48.614;10.226;2022-08-20T02:44:25;6.77;;;6.17;;
23800;SDS011;12081;48.614;10.226;2022-08-20T02:47:09;9.67;;;6.80;;
23800;SDS011;12081;48.614;10.226;2022-08-20T02:49:53;7.03;;;6.33;;
23800;SDS011;12081;48.614;10.226;2022-08-20T02:52:38;7.00;;;6.33;;
23800;SDS011;12081;48.614;10.226;2022-08-20T02:55:23;7.57;;;6.87;;
23800;SDS011;12081;48.614;10.226;2022-08-20T02:58:08;6.73;;;6.13;;
23800;SDS011;12081;48.614;10.226;2022-08-20T03:00:53;7.63;;;6.10;;
23800;SDS011;12081;48.614;10.226;2022-08-20T03:03:39;9.23;;;7.43;;
23800;SDS011;12081;48.614;10.226;2022-08-20T03:06:24;6.70;;;6.10;;
23800;SDS011;12081;48.614;10.226;2022-08-20T03:09:10;7.00;;;6.40;;
23800;SDS011;12081;48.614;10.226;2022-08-20T03:11:54;6.63;;;6.03;;
23800;SDS011;12081;48.614;10.226;2022-08-20T03:14:38;7.10;;;6.40;;
23800;SDS011;12081;48.614;10.226;2022-08-20T03:17:22;8.27;;;6.23;;
23800;SDS011;12081;48.614;10.226;2022-08-20T03:20:07;6.93;;;6.23;;
23800;SDS011;12081;48.614;10.226;2022-08-20T03:22:52;7.50;;;6.50;;
23800;SDS011;12081;48.614;10.226;2022-08-20T03:25:36;7.87;;;5.73;;
23800;SDS011;12081;48.614;10.226;2022-08-20T03:28:20;8.13;;;7.07;;
23800;SDS011;12081;48.614;10.226;2022-08-20T03:31:05;6.77;;;6.17;;
23800;SDS011;12081;48.614;10.226;2022-08-20T03:33:49;7.17;;;6.53;;
23800;SDS011;12081;48.614;10.226;2022-08-20T03:36:33;7.10;;;6.33;;
23800;SDS011;12081;48.614;10.226;2022-08-20T03:39:18;6.47;;;5.80;;
23800;SDS011;12081;48.614;10.226;2022-08-20T03:42:02;7.20;;;6.50;;
23800;SDS011;12081;48.614;10.226;2022-08-20T03:44:47;6.97;;;6.37;;
23800;SDS011;12081;48.614;10.226;2022-08-20T03:47:32;8.13;;;6.00;;
23800;SDS011;12081;48.614;10.226;2022-08-20T03:50:17;6.50;;;5.87;;
23800;SDS011;12081;48.614;10.226;2022-08-20T03:53:04;6.97;;;5.70;;
23800;SDS011;12081;48.614;10.226;2022-08-20T03:55:48;8.73;;;5.67;;
23800;SDS011;12081;48.614;10.226;2022-08-20T03:58:36;7.43;;;5.90;;
23800;SDS011;12081;48.614;10.226;2022-08-20T04:01:20;6.33;;;5.73;;
23800;SDS011;12081;48.614;10.226;2022-08-20T04:04:05;6.47;;;5.03;;
23800;SDS011;12081;48.614;10.226;2022-08-20T04:06:49;7.30;;;6.03;;
23800;SDS011;12081;48.614;10.226;2022-08-20T04:09:33;7.00;;;5.67;;
23800;SDS011;12081;48.614;10.226;2022-08-20T04:12:17;7.80;;;5.60;;
23800;SDS011;12081;48.614;10.226;2022-08-20T04:15:02;6.33;;;5.73;;
23800;SDS011;12081;48.614;10.226;2022-08-20T04:17:47;8.00;;;6.03;;
23800;SDS011;12081;48.614;10.226;2022-08-20T04:20:34;8.47;;;5.57;;
23800;SDS011;12081;48.614;10.226;2022-08-20T04:23:20;7.27;;;6.20;;
23800;SDS011;12081;48.614;10.226;2022-08-20T04:26:08;6.93;;;5.30;;
23800;SDS011;12081;48.614;10.226;2022-08-20T04:34:02;5.90;;;5.40;;
23800;SDS011;12081;48.614;10.226;2022-08-20T04:36:50;6.83;;;5.30;;
23800;SDS011;12081;48.614;10.226;2022-08-20T04:39:34;6.83;;;5.50;;
23800;SDS011;12081;48.614;10.226;2022-08-20T04:42:18;7.97;;;6.17;;
23800;SDS011;12081;48.614;10.226;2022-08-20T04:45:03;7.77;;;5.80;;
23800;SDS011;12081;48.614;10.226;2022-08-20T04:47:49;5.83;;;5.33;;
23800;SDS011;12081;48.614;10.226;2022-08-20T04:50:34;6.17;;;5.60;;
23800;SDS011;12081;48.614;10.226;2022-08-20T04:53:21;5.47;;;4.77;;
23800;SDS011;12081;48.614;10.226;2022-08-20T04:56:07;5.77;;;4.67;;
23800;SDS011;12081;48.614;10.226;2022-08-20T04:58:52;9.20;;;5.47;;
23800;SDS011;12081;48.614;10.226;2022-08-20T05:01:39;6.30;;;5.30;;
23800;SDS011;12081;48.614;10.226;2022-08-20T05:04:23;5.60;;;5.03;;
23800;SDS011;12081;48.614;10.226;2022-08-20T05:07:10;8.07;;;5.10;;
23800;SDS011;12081;48.614;10.226;2022-08-20T05:09:56;5.67;;;5.13;;
23800;SDS011;12081;48.614;10.226;2022-08-20T05:12:43;5.80;;;5.13;;
23800;SDS011;12081;48.614;10.226;2022-08-20T05:15:28;7.30;;;5.37;;
23800;SDS011;12081;48.614;10.226;2022-08-20T05:18:15;4.97;;;4.57;;
23800;SDS011;12081;48.614;10.226;2022-08-20T05:21:02;6.27;;;4.93;;
23800;SDS011;12081;48.614;10.226;2022-08-20T05:23:48;5.43;;;4.83;;
23800;SDS011;12081;48.614;10.226;2022-08-20T05:26:33;5.20;;;4.70;;
23800;SDS011;12081;48.614;10.226;2022-08-20T05:29:17;4.93;;;4.10;;
23800;SDS011;12081;48.614;10.226;2022-08-20T05:32:04;5.30;;;4.70;;
23800;SDS011;12081;48.614;10.226;2022-08-20T05:34:55;4.50;;;4.10;;
23800;SDS011;12081;48.614;10.226;2022-08-20T05:37:40;4.90;;;4.50;;
23800;SDS011;12081;48.614;10.226;2022-08-20T05:40:24;6.07;;;4.30;;
23800;SDS011;12081;48.614;10.226;2022-08-20T05:43:08;4.70;;;4.30;;
23800;SDS011;12081;48.614;10.226;2022-08-20T05:45:52;4.63;;;4.23;;
23800;SDS011;12081;48.614;10.226;2022-08-20T05:48:36;9.97;;;4.17;;
23800;SDS011;12081;48.614;10.226;2022-08-20T05:51:20;4.90;;;4.07;;
23800;SDS011;12081;48.614;10.226;2022-08-20T05:54:04;6.37;;;4.40;;
23800;SDS011;12081;48.614;10.226;2022-08-20T05:56:49;4.63;;;3.93;;
23800;SDS011;12081;48.614;10.226;2022-08-20T05:59:34;4.13;;;3.60;;
23800;SDS011;12081;48.614;10.226;2022-08-20T06:02:19;4.87;;;3.63;;
23800;SDS011;12081;48.614;10.226;2022-08-20T06:05:22;5.87;;;3.80;;
23800;SDS011;12081;48.614;10.226;2022-08-20T06:08:07;4.20;;;3.73;;
23800;SDS011;12081;48.614;10.226;2022-08-20T06:10:52;4.67;;;3.43;;
23800;SDS011;12081;48.614;10.226;2022-08-20T06:13:37;3.83;;;3.30;;
23800;SDS011;12081;48.614;10.226;2022-08-20T06:16:21;3.43;;;3.13;;
23800;SDS011;12081;48.614;10.226;2022-08-20T06:19:05;3.83;;;3.53;;
23800;SDS011;12081;48.614;10.226;2022-08-20T06:21:49;6.53;;;3.57;;
23800;SDS011;12081;48.614;10.226;2022-08-20T06:24:33;3.70;;;3.40;;
23800;SDS011;12081;48.614;10.226;2022-08-20T06:27:17;4.77;;;3.30;;
23800;SDS011;12081;48.614;10.226;2022-08-20T06:30:02;4.57;;;3.67;;
23800;SDS011;12081;48.614;10.226;2022-08-20T06:32:47;3.40;;;3.07;;
23800;SDS011;12081;48.614;10.226;2022-08-20T06:35:33;3.50;;;3.20;;
23800;SDS011;12081;48.614;10.226;2022-08-20T06:38:20;2.77;;;2.57;;
23800;SDS011;12081;48.614;10.226;2022-08-20T06:41:04;3.40;;;3.03;;
23800;SDS011;12081;48.614;10.226;2022-08-20T06:43:48;4.00;;;3.10;;
23800;SDS011;12081;48.614;10.226;2022-08-20T06:46:38;5.17;;;3.00;;
23800;SDS011;12081;48.614;10.226;2022-08-20T06:49:22;3.73;;;3.37;;
23800;SDS011;12081;48.614;10.226;2022-08-20T06:52:06;3.50;;;3.20;;
23800;SDS011;12081;48.614;10.226;2022-08-20T06:54:51;3.80;;;3.00;;
23800;SDS011;12081;48.614;10.226;2022-08-20T06:57:35;5.00;;;3.83;;
23800;SDS011;12081;48.614;10.226;2022-08-20T07:00:20;3.83;;;3.47;;
23800;SDS011;12081;48.614;10.226;2022-08-20T07:03:04;5.10;;;3.60;;
23800;SDS011;12081;48.614;10.226;2022-08-20T07:05:49;4.70;;;3.60;;
23800;SDS011;12081;48.614;10.226;2022-08-20T07:08:33;7.93;;;3.67;;
23800;SDS011;12081;48.614;10.226;2022-08-20T07:11:17;4.23;;;3.67;;
23800;SDS011;12081;48.614;10.226;2022-08-20T07:14:03;4.33;;;3.13;;
23800;SDS011;12081;48.614;10.226;2022-08-20T07:16:48;4.97;;;3.20;;
23800;SDS011;12081;48.614;10.226;2022-08-20T07:19:32;3.33;;;3.03;;
23800;SDS011;12081;48.614;10.226;2022-08-20T07:22:18;5.07;;;3.80;;
23800;SDS011;12081;48.614;10.226;2022-08-20T07:25:03;4.33;;;3.07;;
23800;SDS011;12081;48.614;10.226;2022-08-20T07:27:49;4.43;;;3.60;;
23800;SDS011;12081;48.614;10.226;2022-08-20T07:30:34;4.33;;;3.70;;
23800;SDS011;12081;48.614;10.226;2022-08-20T07:33:38;3.80;;;3.50;;
23800;SDS011;12081;48.614;10.226;2022-08-20T07:36:23;4.23;;;3.83;;
23800;SDS011;12081;48.614;10.226;2022-08-20T07:39:07;5.50;;;3.70;;
23800;SDS011;12081;48.614;10.226;2022-08-20T07:41:52;4.70;;;3.50;;
23800;SDS011;12081;48.614;10.226;2022-08-20T07:44:45;4.03;;;3.27;;
23800;SDS011;12081;48.614;10.226;2022-08-20T07:47:31;4.20;;;3.80;;
23800;SDS011;12081;48.614;10.226;2022-08-20T07:50:20;3.93;;;3.10;;
23800;SDS011;12081;48.614;10.226;2022-08-20T07:53:06;5.30;;;3.20;;
23800;SDS011;12081;48.614;10.226;2022-08-20T07:55:51;4.53;;;3.90;;
23800;SDS011;12081;48.614;10.226;2022-08-20T07:58:37;4.20;;;3.17;;
23800;SDS011;12081;48.614;10.226;2022-08-20T08:01:25;4.53;;;3.70;;
23800;SDS011;12081;48.614;10.226;2022-08-20T08:04:12;7.03;;;3.93;;
23800;SDS011;12081;48.614;10.226;2022-08-20T08:06:56;5.17;;;4.33;;
23800;SDS011;12081;48.614;10.226;2022-08-20T08:09:42;5.03;;;4.53;;
23800;SDS011;12081;48.614;10.226;2022-08-20T08:12:32;6.30;;;4.43;;
23800;SDS011;12081;48.614;10.226;2022-08-20T08:15:23;4.37;;;3.97;;
23800;SDS011;12081;48.614;10.226;2022-08-20T08:18:13;5.17;;;4.67;;
23800;SDS011;12081;48.614;10.226;2022-08-20T08:21:04;5.70;;;4.50;;
23800;SDS011;12081;48.614;10.226;2022-08-20T08:23:49;4.83;;;4.43;;
23800;SDS011;12081;48.614;10.226;2022-08-20T08:26:33;5.30;;;4.90;;
23800;SDS011;12081;48.614;10.226;2022-08-20T08:29:18;4.50;;;4.13;;
23800;SDS011;12081;48.614;10.226;2022-08-20T08:32:02;5.80;;;5.27;;
23800;SDS011;12081;48.614;10.226;2022-08-20T08:34:48;5.83;;;4.80;;
23800;SDS011;12081;48.614;10.226;2022-08-20T08:37:32;8.47;;;6.13;;
23800;SDS011;12081;48.614;10.226;2022-08-20T08:40:17;9.57;;;6.03;;
23800;SDS011;12081;48.614;10.226;2022-08-20T08:43:01;5.50;;;5.00;;
23800;SDS011;12081;48.614;10.226;2022-08-20T08:45:49;6.30;;;5.70;;
23800;SDS011;12081;48.614;10.226;2022-08-20T08:48:40;7.37;;;5.90;;
23800;SDS011;12081;48.614;10.226;2022-08-20T08:51:35;6.30;;;5.70;;
23800;SDS011;12081;48.614;10.226;2022-08-20T08:54:32;6.40;;;5.77;;
23800;SDS011;12081;48.614;10.226;2022-08-20T08:57:18;6.57;;;5.53;;
23800;SDS011;12081;48.614;10.226;2022-08-20T09:00:21;8.67;;;5.67;;
23800;SDS011;12081;48.614;10.226;2022-08-20T09:03:07;7.70;;;5.43;;
23800;SDS011;12081;48.614;10.226;2022-08-20T09:05:55;5.67;;;5.17;;
23800;SDS011;12081;48.614;10.226;2022-08-20T09:08:47;6.07;;;5.50;;
23800;SDS011;12081;48.614;10.226;2022-08-20T09:11:49;6.23;;;5.60;;
23800;SDS011;12081;48.614;10.226;2022-08-20T09:14:35;5.30;;;4.80;;
23800;SDS011;12081;48.614;10.226;2022-08-20T09:17:20;5.30;;;4.80;;
23800;SDS011;12081;48.614;10.226;2022-08-20T09:20:05;6.37;;;5.77;;
23800;SDS011;12081;48.614;10.226;2022-08-20T09:22:51;9.98;;;5.88;;
23800;SDS011;12081;48.614;10.226;2022-08-20T09:25:36;5.70;;;5.07;;
23800;SDS011;12081;48.614;10.226;2022-08-20T09:28:20;5.77;;;5.27;;
23800;SDS011;12081;48.614;10.226;2022-08-20T09:31:04;5.10;;;4.70;;
23800;SDS011;12081;48.614;10.226;2022-08-20T09:33:48;5.43;;;5.03;;
23800;SDS011;12081;48.614;10.226;2022-08-20T09:36:33;5.20;;;4.70;;
23800;SDS011;12081;48.614;10.226;2022-08-20T09:39:17;5.20;;;4.80;;
23800;SDS011;12081;48.614;10.226;2022-08-20T09:44:55;5.00;;;4.55;;
23800;SDS011;12081;48.614;10.226;2022-08-20T09:47:39;4.80;;;4.40;;
23800;SDS011;12081;48.614;10.226;2022-08-20T09:50:25;6.45;;;4.40;;
23800;SDS011;12081;48.614;10.226;2022-08-20T09:53:10;5.35;;;4.75;;
23800;SDS011;12081;48.614;10.226;2022-08-20T09:55:55;4.88;;;4.38;;
23800;SDS011;12081;48.614;10.226;2022-08-20T09:58:52;5.15;;;4.20;;
23800;SDS011;12081;48.614;10.226;2022-08-20T10:01:37;5.05;;;4.55;;
23800;SDS011;12081;48.614;10.226;2022-08-20T10:04:21;4.30;;;3.90;;
23800;SDS011;12081;48.614;10.226;2022-08-20T10:07:06;7.00;;;3.45;;
23800;SDS011;12081;48.614;10.226;2022-08-20T10:09:51;4.70;;;3.72;;
23800;SDS011;12081;48.614;10.226;2022-08-20T10:12:35;3.60;;;3.28;;
23800;SDS011;12081;48.614;10.226;2022-08-20T10:15:19;3.58;;;3.00;;
23800;SDS011;12081;48.614;10.226;2022-08-20T10:18:03;4.05;;;3.10;;
23800;SDS011;12081;48.614;10.226;2022-08-20T10:20:50;4.28;;;2.75;;
23800;SDS011;12081;48.614;10.226;2022-08-20T10:23:34;3.22;;;2.92;;
23800;SDS011;12081;48.614;10.226;2022-08-20T10:26:18;2.92;;;2.60;;
23800;SDS011;12081;48.614;10.226;2022-08-20T10:29:02;3.88;;;3.00;;
23800;SDS011;12081;48.614;10.226;2022-08-20T10:31:46;3.42;;;3.13;;
23800;SDS011;12081;48.614;10.226;2022-08-20T10:34:31;2.80;;;2.47;;
23800;SDS011;12081;48.614;10.226;2022-08-20T10:37:17;5.07;;;2.33;;
23800;SDS011;12081;48.614;10.226;2022-08-20T10:40:04;2.83;;;2.55;;
23800;SDS011;12081;48.614;10.226;2022-08-20T10:42:49;2.47;;;2.28;;
23800;SDS011;12081;48.614;10.226;2022-08-20T10:45:33;2.15;;;1.85;;
23800;SDS011;12081;48.614;10.226;2022-08-20T10:48:17;2.38;;;2.10;;
23800;SDS011;12081;48.614;10.226;2022-08-20T10:51:02;2.60;;;2.13;;
23800;SDS011;12081;48.614;10.226;2022-08-20T10:53:46;1.88;;;1.63;;
23800;SDS011;12081;48.614;10.226;2022-08-20T10:56:30;2.00;;;1.67;;
23800;SDS011;12081;48.614;10.226;2022-08-20T10:59:14;2.67;;;1.55;;
23800;SDS011;12081;48.614;10.226;2022-08-20T11:01:58;2.65;;;1.38;;
23800;SDS011;12081;48.614;10.226;2022-08-20T11:04:43;1.27;;;1.17;;
23800;SDS011;12081;48.614;10.226;2022-08-20T11:07:30;1.13;;;1.02;;
23800;SDS011;12081;48.614;10.226;2022-08-20T11:10:19;1.27;;;1.17;;
23800;SDS011;12081;48.614;10.226;2022-08-20T11:13:05;3.53;;;1.50;;
23800;SDS011;12081;48.614;10.226;2022-08-20T11:15:50;1.55;;;1.40;;
23800;SDS011;12081;48.614;10.226;2022-08-20T11:18:34;3.20;;;1.48;;
23800;SDS011;12081;48.614;10.226;2022-08-20T11:21:18;3.88;;;1.40;;
23800;SDS011;12081;48.614;10.226;2022-08-20T11:24:02;1.50;;;1.40;;
23800;SDS011;12081;48.614;10.226;2022-08-20T11:26:47;1.50;;;1.30;;
23800;SDS011;12081;48.614;10.226;2022-08-20T11:29:33;3.85;;;1.67;;
23800;SDS011;12081;48.614;10.226;2022-08-20T11:32:18;2.78;;;1.33;;
23800;SDS011;12081;48.614;10.226;2022-08-20T11:35:03;1.10;;;1.00;;
23800;SDS011;12081;48.614;10.226;2022-08-20T11:37:49;1.50;;;1.30;;
23800;SDS011;12081;48.614;10.226;2022-08-20T11:40:34;1.52;;;1.38;;
23800;SDS011;12081;48.614;10.226;2022-08-20T11:43:18;2.38;;;1.58;;
23800;SDS011;12081;48.614;10.226;2022-08-20T11:46:02;2.20;;;1.30;;
23800;SDS011;12081;48.614;10.226;2022-08-20T11:48:47;1.30;;;1.20;;
23800;SDS011;12081;48.614;10.226;2022-08-20T11:51:30;1.25;;;1.15;;
23800;SDS011;12081;48.614;10.226;2022-08-20T11:54:16;1.80;;;1.50;;
23800;SDS011;12081;48.614;10.226;2022-08-20T11:57:00;1.77;;;1.50;;
23800;SDS011;12081;48.614;10.226;2022-08-20T11:59:47;1.58;;;1.30;;
23800;SDS011;12081;48.614;10.226;2022-08-20T12:02:33;4.18;;;1.45;;
23800;SDS011;12081;48.614;10.226;2022-08-20T12:05:17;1.88;;;1.63;;
23800;SDS011;12081;48.614;10.226;2022-08-20T12:08:02;3.67;;;1.60;;
23800;SDS011;12081;48.614;10.226;2022-08-20T12:10:46;2.60;;;1.27;;
23800;SDS011;12081;48.614;10.226;2022-08-20T12:13:32;1.50;;;1.40;;
23800;SDS011;12081;48.614;10.226;2022-08-20T12:16:17;1.90;;;1.70;;
23800;SDS011;12081;48.614;10.226;2022-08-20T12:19:02;3.53;;;1.80;;
23800;SDS011;12081;48.614;10.226;2022-08-20T12:21:45;1.70;;;1.60;;
23800;SDS011;12081;48.614;10.226;2022-08-20T12:24:30;1.77;;;0.90;;
23800;SDS011;12081;48.614;10.226;2022-08-20T12:27:20;1.00;;;0.85;;
23800;SDS011;12081;48.614;10.226;2022-08-20T12:30:09;0.70;;;0.40;;
23800;SDS011;12081;48.614;10.226;2022-08-20T12:32:55;1.20;;;0.60;;
23800;SDS011;12081;48.614;10.226;2022-08-20T12:35:40;4.20;;;1.20;;
23800;SDS011;12081;48.614;10.226;2022-08-20T12:38:24;5.40;;;1.67;;
23800;SDS011;12081;48.614;10.226;2022-08-20T12:41:09;4.13;;;1.00;;
23800;SDS011;12081;48.614;10.226;2022-08-20T12:43:53;1.97;;;1.07;;
23800;SDS011;12081;48.614;10.226;2022-08-20T12:46:37;2.05;;;1.25;;
23800;SDS011;12081;48.614;10.226;2022-08-20T12:49:21;2.75;;;1.67;;
23800;SDS011;12081;48.614;10.226;2022-08-20T12:52:05;5.10;;;1.97;;
23800;SDS011;12081;48.614;10.226;2022-08-20T12:54:50;2.57;;;1.97;;
23800;SDS011;12081;48.614;10.226;2022-08-20T12:57:39;2.83;;;2.30;;
23800;SDS011;12081;48.614;10.226;2022-08-20T13:00:32;3.75;;;2.60;;
23800;SDS011;12081;48.614;10.226;2022-08-20T13:03:24;3.50;;;3.20;;
23800;SDS011;12081;48.614;10.226;2022-08-20T13:06:08;2.93;;;2.60;;
23800;SDS011;12081;48.614;10.226;2022-08-20T13:08:53;3.27;;;2.40;;
23800;SDS011;12081;48.614;10.226;2022-08-20T13:11:37;3.43;;;1.93;;
23800;SDS011;12081;48.614;10.226;2022-08-20T13:14:21;2.20;;;2.00;;
23800;SDS011;12081;48.614;10.226;2022-08-20T13:17:06;2.33;;;2.03;;
23800;SDS011;12081;48.614;10.226;2022-08-20T13:19:50;2.17;;;1.70;;
23800;SDS011;12081;48.614;10.226;2022-08-20T13:22:35;1.70;;;1.60;;
23800;SDS011;12081;48.614;10.226;2022-08-20T13:25:19;2.93;;;2.30;;
23800;SDS011;12081;48.614;10.226;2022-08-20T13:28:05;2.30;;;2.10;;
23800;SDS011;12081;48.614;10.226;2022-08-20T13:30:49;2.47;;;2.27;;
23800;SDS011;12081;48.614;10.226;2022-08-20T13:33:33;2.33;;;2.13;;
23800;SDS011;12081;48.614;10.226;2022-08-20T13:36:17;3.90;;;2.67;;
23800;SDS011;12081;48.614;10.226;2022-08-20T13:39:02;3.00;;;2.70;;
23800;SDS011;12081;48.614;10.226;2022-08-20T13:41:49;3.00;;;2.70;;
23800;SDS011;12081;48.614;10.226;2022-08-20T13:44:33;4.07;;;2.70;;
23800;SDS011;12081;48.614;10.226;2022-08-20T13:47:19;3.53;;;2.50;;
23800;SDS011;12081;48.614;10.226;2022-08-20T13:52:58;3.47;;;2.63;;
23800;SDS011;12081;48.614;10.226;2022-08-20T13:55:42;6.80;;;2.70;;
23800;SDS011;12081;48.614;10.226;2022-08-20T13:58:27;2.17;;;2.00;;
23800;SDS011;12081;48.614;10.226;2022-08-20T14:01:11;2.63;;;2.43;;
23800;SDS011;12081;48.614;10.226;2022-08-20T14:03:55;2.90;;;2.03;;
23800;SDS011;12081;48.614;10.226;2022-08-20T14:06:39;1.93;;;1.77;;
23800;SDS011;12081;48.614;10.226;2022-08-20T14:09:23;1.80;;;0.60;;
23800;SDS011;12081;48.614;10.226;2022-08-20T14:12:07;0.53;;;0.37;;
23800;SDS011;12081;48.614;10.226;2022-08-20T14:14:52;0.77;;;0.50;;
23800;SDS011;12081;48.614;10.226;2022-08-20T14:17:38;0.40;;;0.40;;
23800;SDS011;12081;48.614;10.226;2022-08-20T14:20:32;1.13;;;0.60;;
23800;SDS011;12081;48.614;10.226;2022-08-20T14:23:17;0.60;;;0.60;;
23800;SDS011;12081;48.614;10.226;2022-08-20T14:26:01;0.70;;;0.60;;
23800;SDS011;12081;48.614;10.226;2022-08-20T14:28:45;0.70;;;0.70;;
23800;SDS011;12081;48.614;10.226;2022-08-20T14:31:29;0.93;;;0.60;;
23800;SDS011;12081;48.614;10.226;2022-08-20T14:34:13;0.93;;;0.80;;
23800;SDS011;12081;48.614;10.226;2022-08-20T14:37:07;0.93;;;0.83;;
23800;SDS011;12081;48.614;10.226;2022-08-20T14:40:04;1.53;;;0.90;;
23800;SDS011;12081;48.614;10.226;2022-08-20T14:42:51;1.10;;;0.90;;
23800;SDS011;12081;48.614;10.226;2022-08-20T14:45:35;1.93;;;1.00;;
23800;SDS011;12081;48.614;10.226;2022-08-20T14:48:19;0.70;;;0.60;;
23800;SDS011;12081;48.614;10.226;2022-08-20T14:51:03;1.27;;;0.90;;
23800;SDS011;12081;48.614;10.226;2022-08-20T14:53:49;2.10;;;0.90;;
23800;SDS011;12081;48.614;10.226;2022-08-20T14:56:33;1.80;;;1.40;;
23800;SDS011;12081;48.614;10.226;2022-08-20T14:59:17;1.43;;;1.23;;
23800;SDS011;12081;48.614;10.226;2022-08-20T15:02:02;4.43;;;1.23;;
23800;SDS011;12081;48.614;10.226;2022-08-20T15:04:49;1.47;;;1.13;;
23800;SDS011;12081;48.614;10.226;2022-08-20T15:07:34;1.77;;;1.10;;
23800;SDS011;12081;48.614;10.226;2022-08-20T15:10:22;1.30;;;1.20;;
23800;SDS011;12081;48.614;10.226;2022-08-20T15:13:11;1.53;;;1.30;;
23800;SDS011;12081;48.614;10.226;2022-08-20T15:15:55;2.50;;;1.47;;
23800;SDS011;12081;48.614;10.226;2022-08-20T15:18:39;1.80;;;1.30;;
23800;SDS011;12081;48.614;10.226;2022-08-20T15:21:25;1.37;;;1.23;;
23800;SDS011;12081;48.614;10.226;2022-08-20T15:24:10;1.30;;;1.20;;
23800;SDS011;12081;48.614;10.226;2022-08-20T15:26:54;1.73;;;1.63;;
23800;SDS011;12081;48.614;10.226;2022-08-20T15:29:38;1.60;;;1.40;;
23800;SDS011;12081;48.614;10.226;2022-08-20T15:32:23;1.83;;;1.60;;
23800;SDS011;12081;48.614;10.226;2022-08-20T15:35:07;2.27;;;1.70;;
23800;SDS011;12081;48.614;10.226;2022-08-20T15:37:55;1.70;;;1.40;;
23800;SDS011;12081;48.614;10.226;2022-08-20T15:40:40;3.00;;;1.80;;
23800;SDS011;12081;48.614;10.226;2022-08-20T15:43:24;3.17;;;1.80;;
23800;SDS011;12081;48.614;10.226;2022-08-20T15:46:08;2.70;;;1.70;;
23800;SDS011;12081;48.614;10.226;2022-08-20T15:48:52;1.70;;;1.60;;
23800;SDS011;12081;48.614;10.226;2022-08-20T15:51:44;2.60;;;1.80;;
23800;SDS011;12081;48.614;10.226;2022-08-20T15:54:30;2.20;;;1.90;;
23800;SDS011;12081;48.614;10.226;2022-08-20T16:00:47;1.92;;;1.73;;
23800;SDS011;12081;48.614;10.226;2022-08-20T16:03:57;2.58;;;2.03;;
23800;SDS011;12081;48.614;10.226;2022-08-20T16:06:50;3.95;;;2.15;;
23800;SDS011;12081;48.614;10.226;2022-08-20T16:12:48;2.20;;;1.83;;
23800;SDS011;12081;48.614;10.226;2022-08-20T16:15:35;2.13;;;1.92;;
23800;SDS011;12081;48.614;10.226;2022-08-20T16:18:25;2.47;;;1.97;;
23800;SDS011;12081;48.614;10.226;2022-08-20T16:21:27;2.00;;;1.80;;
23800;SDS011;12081;48.614;10.226;2022-08-20T16:24:14;1.97;;;1.77;;
23800;SDS011;12081;48.614;10.226;2022-08-20T16:27:04;3.70;;;1.80;;
23800;SDS011;12081;48.614;10.226;2022-08-20T16:30:11;2.40;;;2.20;;
23800;SDS011;12081;48.614;10.226;2022-08-20T16:36:14;2.23;;;2.03;;
23800;SDS011;12081;48.614;10.226;2022-08-20T16:39:23;2.07;;;1.83;;
23800;SDS011;12081;48.614;10.226;2022-08-20T16:42:09;3.43;;;2.30;;
23800;SDS011;12081;48.614;10.226;2022-08-20T16:44:53;2.50;;;2.30;;
23800;SDS011;12081;48.614;10.226;2022-08-20T16:47:39;2.35;;;2.15;;
23800;SDS011;12081;48.614;10.226;2022-08-20T16:50:24;6.00;;;2.60;;
23800;SDS011;12081;48.614;10.226;2022-08-20T16:53:17;2.83;;;2.63;;
23800;SDS011;12081;48.614;10.226;2022-08-20T16:56:03;2.87;;;2.43;;
23800;SDS011;12081;48.614;10.226;2022-08-20T16:58:48;3.07;;;2.77;;